Time;durP1;ratioP1;P1;durP2;ratioP2;P2;SDS_P1;SDS_P2;PMS_P1;PMS_P2;Temp;Humidity;BMP_temperature;BMP_pressure;BME280_temperature;BME280_humidity;BME280_pressure;Samples;Min_cycle;Max_cycle;Signal;HPM_P1;HPM_P2
2022/10/03 00:02:37;;;;;;;;;;;27.90;92.70;;;;;;5147967;27;19907;-46
2022/10/03 00:05:10;;;;;;;;;;;27.90;92.90;;;;;;5147843;27;19907;-55
2022/10/03 00:07:49;;;;;;;;;;;27.90;92.80;;;;;;5147895;27;19913;-44
2022/10/03 00:10:21;;;;;;;;;;;27.90;92.70;;;;;;5147892;27;25113;-49
2022/10/03 00:13:05;;;;;;;;;;;27.80;92.80;;;;;;5129387;27;19946;-45
2022/10/03 00:15:31;;;;;;;;;;;27.90;92.80;;;;;;5147456;27;20264;-49
2022/10/03 00:18:07;;;;;;;;;;;27.80;92.80;;;;;;5130269;27;19939;-48
2022/10/03 00:20:39;;;;;;;;;;;27.80;92.80;;;;;;5129676;27;24074;-43
2022/10/03 00:23:05;;;;;;;;;;;27.80;92.90;;;;;;5147529;27;24061;-48
2022/10/03 00:25:37;;;;;;;;;;;27.80;92.80;;;;;;5147810;27;19911;-47
2022/10/03 00:28:16;;;;;;;;;;;27.80;92.80;;;;;;5147920;27;20205;-53
2022/10/03 00:30:42;;;;;;;;;;;27.80;92.70;;;;;;5147811;27;24139;-46
2022/10/03 00:33:24;;;;;;;;;;;27.80;92.70;;;;;;5147550;27;24097;-49
2022/10/03 00:36:10;;;;;;;;;;;27.80;92.70;;;;;;5147398;27;20198;-41
2022/10/03 00:38:43;;;;;;;;;;;27.80;92.70;;;;;;5146735;27;20200;-49
2022/10/03 00:41:27;;;;;;;;;;;27.80;92.90;;;;;;5147181;27;24081;-42
2022/10/03 00:44:06;;;;;;;;;;;27.80;92.70;;;;;;5147086;27;24056;-46
2022/10/03 00:46:48;;;;;;;;;;;27.80;92.70;;;;;;5147696;27;19915;-47
2022/10/03 00:49:20;;;;;;;;;;;27.80;92.80;;;;;;5146975;27;19907;-43
2022/10/03 00:51:55;;;;;;;;;;;27.80;92.80;;;;;;5147671;27;19946;-45
2022/10/03 00:54:40;;;;;;;;;;;27.80;92.70;;;;;;5146806;27;19934;-42
2022/10/03 00:57:16;;;;;;;;;;;27.70;92.80;;;;;;5146806;27;19918;-47
2022/10/03 01:00:05;;;;;;;;;;;27.70;92.90;;;;;;5147248;27;19953;-45
2022/10/03 01:02:35;;;;;;;;;;;27.70;92.80;;;;;;5147235;27;19907;-51
2022/10/03 01:05:13;;;;;;;;;;;27.70;92.80;;;;;;5086977;27;25097;-47
2022/10/03 01:07:39;;;;;;;;;;;27.80;92.80;;;;;;5146852;27;20063;-46
2022/10/03 01:10:18;;;;;;;;;;;27.70;92.80;;;;;;5147157;27;19903;-45
2022/10/03 01:12:44;;;;;;;;;;;27.70;92.90;;;;;;5146605;27;19907;-56
2022/10/03 01:15:17;;;;;;;;;;;27.70;92.90;;;;;;5127877;27;20122;-46
2022/10/03 01:18:02;;;;;;;;;;;27.70;93.00;;;;;;5146785;27;19907;-46
2022/10/03 01:20:29;;;;;;;;;;;27.70;93.00;;;;;;5146910;27;19945;-43
2022/10/03 01:23:01;;;;;;;;;;;27.70;93.10;;;;;;5146496;27;19907;-42
2022/10/03 01:25:31;;;;;;;;;;;27.70;93.10;;;;;;5146609;27;19911;-46
2022/10/03 01:30:56;;;;;;;;;;;27.70;93.20;;;;;;5146746;27;19907;-49
2022/10/03 01:33:39;;;;;;;;;;;27.70;93.20;;;;;;5146715;27;20007;-49
2022/10/03 01:36:06;;;;;;;;;;;27.70;93.30;;;;;;5146482;27;19949;-47
2022/10/03 01:38:50;;;;;;;;;;;27.60;93.30;;;;;;5146161;27;19911;-48
2022/10/03 01:41:22;;;;;;;;;;;27.60;93.30;;;;;;5145731;27;19915;-48
2022/10/03 01:44:00;;;;;;;;;;;27.60;93.30;;;;;;5145974;27;24070;-44
2022/10/03 01:46:42;;;;;;;;;;;27.60;93.30;;;;;;5146029;27;20032;-47
2022/10/03 01:49:08;;;;;;;;;;;27.60;93.30;;;;;;5146134;27;24079;-46
2022/10/03 01:51:53;;;;;;;;;;;27.60;93.30;;;;;;5146262;27;19904;-55
2022/10/03 01:54:19;;;;;;;;;;;27.60;93.30;;;;;;5127577;27;19939;-43
2022/10/03 01:56:54;;;;;;;;;;;27.60;93.30;;;;;;5145417;27;19978;-44
2022/10/03 01:59:30;;;;;;;;;;;27.60;93.30;;;;;;5145818;27;19904;-48
2022/10/03 02:02:19;;;;;;;;;;;27.60;93.40;;;;;;5145432;27;20108;-44
2022/10/03 02:04:45;;;;;;;;;;;27.60;93.40;;;;;;5137578;27;19941;-47
2022/10/03 02:07:20;;;;;;;;;;;27.60;93.40;;;;;;5145246;27;19903;-44
2022/10/03 02:09:52;;;;;;;;;;;27.60;93.40;;;;;;5145580;27;19966;-46
2022/10/03 02:12:21;;;;;;;;;;;27.60;93.40;;;;;;5127267;28;19907;-45
2022/10/03 02:14:55;;;;;;;;;;;27.60;93.40;;;;;;5145688;28;20102;-44
2022/10/03 02:17:29;;;;;;;;;;;27.60;93.40;;;;;;5145252;27;19913;-50
2022/10/03 02:20:00;;;;;;;;;;;27.50;93.40;;;;;;5145594;27;19987;-45
2022/10/03 02:22:45;;;;;;;;;;;27.50;93.60;;;;;;5145554;27;19930;-47
2022/10/03 02:25:21;;;;;;;;;;;27.50;93.40;;;;;;5145241;28;19911;-45
2022/10/03 02:27:49;;;;;;;;;;;27.50;93.40;;;;;;5145400;28;25078;-46
2022/10/03 02:30:24;;;;;;;;;;;27.50;93.40;;;;;;5145785;28;20142;-47
2022/10/03 02:33:11;;;;;;;;;;;27.50;93.40;;;;;;5145513;28;19915;-45
2022/10/03 02:35:37;;;;;;;;;;;27.50;93.40;;;;;;5144940;28;19907;-45
2022/10/03 02:38:09;;;;;;;;;;;27.50;93.30;;;;;;5144951;28;24107;-44
2022/10/03 02:40:38;;;;;;;;;;;27.40;93.30;;;;;;5126966;28;19970;-44
2022/10/03 02:43:16;;;;;;;;;;;27.50;93.40;;;;;;5144975;28;19986;-46
2022/10/03 02:45:51;;;;;;;;;;;27.40;93.40;;;;;;5145745;28;19903;-47
2022/10/03 02:48:24;;;;;;;;;;;27.40;93.40;;;;;;5145196;28;19914;-48
2022/10/03 02:51:11;;;;;;;;;;;27.40;93.40;;;;;;5145789;28;19907;-45
2022/10/03 02:53:40;;;;;;;;;;;27.40;93.40;;;;;;5148710;27;19913;-48
2022/10/03 02:56:06;;;;;;;;;;;27.40;93.40;;;;;;5149165;27;19987;-54
2022/10/03 02:58:45;;;;;;;;;;;27.40;93.40;;;;;;5149175;27;19940;-48
2022/10/03 03:01:29;;;;;;;;;;;27.40;93.40;;;;;;5149105;27;19974;-43
2022/10/03 03:04:08;;;;;;;;;;;27.40;93.50;;;;;;5148917;27;19946;-41
2022/10/03 03:06:47;;;;;;;;;;;27.30;93.40;;;;;;5149215;27;19942;-44
2022/10/03 03:09:28;;;;;;;;;;;27.30;93.50;;;;;;5149202;27;19944;-48
2022/10/03 03:12:01;;;;;;;;;;;27.30;93.50;;;;;;5149312;27;20031;-43
2022/10/03 03:14:30;;;;;;;;;;;27.30;93.50;;;;;;5148932;27;19974;-44
2022/10/03 03:16:56;;;;;;;;;;;27.30;93.50;;;;;;5148548;27;25100;-43
2022/10/03 03:19:41;;;;;;;;;;;27.30;93.50;;;;;;5149009;27;19907;-44
2022/10/03 03:22:33;;;;;;;;;;;27.30;93.50;;;;;;5149367;27;19931;-47
2022/10/03 03:25:09;;;;;;;;;;;27.30;93.50;;;;;;5144842;27;19907;-48
2022/10/03 03:27:45;;;;;;;;;;;27.30;93.50;;;;;;5149207;27;24065;-44
2022/10/03 03:30:12;;;;;;;;;;;27.30;93.50;;;;;;5149009;27;24090;-46
2022/10/03 03:32:38;;;;;;;;;;;27.30;93.50;;;;;;5149023;27;24119;-48
2022/10/03 03:35:14;;;;;;;;;;;27.30;93.50;;;;;;5148992;27;19918;-43
2022/10/03 03:38:02;;;;;;;;;;;27.20;93.50;;;;;;5148715;27;20039;-45
2022/10/03 03:40:38;;;;;;;;;;;27.20;93.50;;;;;;5149342;27;19908;-49
2022/10/03 03:43:04;;;;;;;;;;;27.20;93.50;;;;;;5148845;27;19912;-46
2022/10/03 03:45:44;;;;;;;;;;;27.20;93.40;;;;;;5148410;27;24090;-44
2022/10/03 03:48:21;;;;;;;;;;;27.20;93.50;;;;;;5148267;27;25111;-42
2022/10/03 03:51:06;;;;;;;;;;;27.20;93.40;;;;;;5148603;27;19962;-44
2022/10/03 03:53:50;;;;;;;;;;;27.20;93.50;;;;;;5147928;27;19914;-49
2022/10/03 03:56:23;;;;;;;;;;;27.10;93.50;;;;;;5148237;27;19949;-50
2022/10/03 03:59:01;;;;;;;;;;;27.10;93.50;;;;;;5147857;27;20039;-46
2022/10/03 04:01:28;;;;;;;;;;;27.10;93.40;;;;;;5148034;27;19903;-45
2022/10/03 04:04:14;;;;;;;;;;;27.10;93.40;;;;;;5147769;27;19914;-47
2022/10/03 04:06:50;;;;;;;;;;;27.10;93.40;;;;;;5148027;27;24098;-46
2022/10/03 04:09:27;;;;;;;;;;;27.10;93.40;;;;;;5147918;27;19915;-43
2022/10/03 04:12:12;;;;;;;;;;;27.10;93.40;;;;;;5148018;27;19910;-47
2022/10/03 04:14:45;;;;;;;;;;;27.10;93.50;;;;;;5147438;27;19907;-44
2022/10/03 04:20:19;;;;;;;;;;;27.10;93.40;;;;;;5147721;27;19930;-42
2022/10/03 04:22:46;;;;;;;;;;;27.10;93.30;;;;;;5147923;27;19910;-42
2022/10/03 04:25:14;;;;;;;;;;;27.10;93.30;;;;;;5147296;27;19915;-44
2022/10/03 04:27:41;;;;;;;;;;;27.00;93.30;;;;;;5147777;27;19903;-43
2022/10/03 04:30:16;;;;;;;;;;;27.00;93.30;;;;;;5147520;27;19907;-44
2022/10/03 04:32:48;;;;;;;;;;;27.00;93.30;;;;;;5147680;27;19910;-41
2022/10/03 04:35:50;;;;;;;;;;;27.00;93.20;;;;;;5147131;27;20019;-42
2022/10/03 04:38:39;;;;;;;;;;;27.00;93.20;;;;;;5084149;28;25096;-44
2022/10/03 04:41:08;;;;;;;;;;;27.00;93.20;;;;;;5144571;27;19910;-43
2022/10/03 04:43:42;;;;;;;;;;;27.00;93.20;;;;;;5147030;27;19907;-46
2022/10/03 04:46:17;;;;;;;;;;;27.00;93.10;;;;;;5147150;27;19978;-45
2022/10/03 04:49:02;;;;;;;;;;;27.00;93.10;;;;;;5146771;27;19908;-45
2022/10/03 04:51:47;;;;;;;;;;;27.00;93.00;;;;;;5146937;27;20206;-43
2022/10/03 04:54:15;;;;;;;;;;;27.00;93.20;;;;;;5146553;27;19907;-49
2022/10/03 04:56:44;;;;;;;;;;;27.00;93.00;;;;;;5147245;27;19907;-52
2022/10/03 04:59:10;;;;;;;;;;;26.90;93.00;;;;;;5146889;27;24104;-45
2022/10/03 05:01:39;;;;;;;;;;;26.90;93.00;;;;;;5146939;27;19900;-46
2022/10/03 05:04:18;;;;;;;;;;;26.90;93.00;;;;;;5146532;27;20096;-49
2022/10/03 05:06:47;;;;;;;;;;;26.90;93.00;;;;;;5146901;27;19903;-43
2022/10/03 05:09:26;;;;;;;;;;;26.90;92.90;;;;;;5146741;27;19971;-42
2022/10/03 05:12:11;;;;;;;;;;;26.90;92.90;;;;;;5146897;27;19948;-47
2022/10/03 05:14:43;;;;;;;;;;;26.90;92.80;;;;;;5146250;27;19911;-46
2022/10/03 05:17:19;;;;;;;;;;;26.90;92.80;;;;;;5145946;27;24104;-44
2022/10/03 05:20:01;;;;;;;;;;;26.90;92.70;;;;;;5087018;27;19914;-44
2022/10/03 05:22:27;;;;;;;;;;;26.80;92.80;;;;;;5036023;28;19940;-41
2022/10/03 05:25:11;;;;;;;;;;;26.80;92.90;;;;;;5041041;28;19940;-41
2022/10/03 05:27:56;;;;;;;;;;;26.80;92.90;;;;;;5042418;28;24094;-42
2022/10/03 05:30:32;;;;;;;;;;;26.80;92.90;;;;;;5041849;28;19940;-51
2022/10/03 05:33:05;;;;;;;;;;;26.80;92.90;;;;;;5042523;28;20088;-41
2022/10/03 05:35:34;;;;;;;;;;;26.80;92.90;;;;;;5042186;28;24068;-41
2022/10/03 05:38:16;;;;;;;;;;;26.80;92.80;;;;;;5041282;28;24065;-41
2022/10/03 05:40:47;;;;;;;;;;;26.90;92.80;;;;;;5042759;28;19905;-41
2022/10/03 05:43:26;;;;;;;;;;;26.90;92.80;;;;;;5041532;28;19923;-41
2022/10/03 05:46:15;;;;;;;;;;;26.90;92.80;;;;;;5041800;28;19905;-45
2022/10/03 05:48:47;;;;;;;;;;;26.90;92.70;;;;;;5041467;28;25073;-41
2022/10/03 05:51:38;;;;;;;;;;;26.90;92.80;;;;;;5041120;28;20100;-43
2022/10/03 05:54:04;;;;;;;;;;;26.90;92.80;;;;;;5041705;28;19931;-41
2022/10/03 05:56:30;;;;;;;;;;;26.90;92.70;;;;;;5040946;28;24073;-41
2022/10/03 05:59:13;;;;;;;;;;;26.90;92.70;;;;;;5041295;28;24105;-41
2022/10/03 06:01:58;;;;;;;;;;;26.90;92.70;;;;;;5040756;28;24065;-49
2022/10/03 06:04:33;;;;;;;;;;;26.90;92.70;;;;;;5040435;28;19984;-47
2022/10/03 06:07:22;;;;;;;;;;;26.80;92.80;;;;;;5040491;28;24073;-44
2022/10/03 06:09:56;;;;;;;;;;;26.80;92.80;;;;;;5040385;28;24105;-44
2022/10/03 06:12:41;;;;;;;;;;;26.80;92.70;;;;;;5040785;28;24079;-46
2022/10/03 06:15:18;;;;;;;;;;;26.80;92.70;;;;;;5040165;28;19972;-45
2022/10/03 06:17:56;;;;;;;;;;;26.70;92.70;;;;;;5041424;28;19939;-47
2022/10/03 06:20:43;;;;;;;;;;;26.70;92.70;;;;;;5041585;28;24060;-43
2022/10/03 06:23:28;;;;;;;;;;;26.80;92.80;;;;;;5041105;28;24080;-46
2022/10/03 06:26:14;;;;;;;;;;;26.70;92.70;;;;;;5041237;28;19925;-41
2022/10/03 06:29:03;;;;;;;;;;;26.70;92.70;;;;;;5041145;28;24094;-44
2022/10/03 06:31:49;;;;;;;;;;;26.70;92.80;;;;;;5041287;28;19904;-47
2022/10/03 06:34:16;;;;;;;;;;;26.70;92.80;;;;;;5041381;28;20101;-41
2022/10/03 06:36:48;;;;;;;;;;;26.60;92.70;;;;;;5041067;28;19908;-47
2022/10/03 06:39:20;;;;;;;;;;;26.60;92.80;;;;;;5041497;28;20184;-43
2022/10/03 06:41:50;;;;;;;;;;;26.60;92.80;;;;;;5041413;28;19905;-48
2022/10/03 06:44:19;;;;;;;;;;;26.60;92.90;;;;;;5040816;28;24065;-42
2022/10/03 06:47:03;;;;;;;;;;;26.60;92.90;;;;;;5041512;28;19941;-43
2022/10/03 06:49:47;;;;;;;;;;;26.60;92.90;;;;;;5040897;28;19916;-43
2022/10/03 06:52:30;;;;;;;;;;;26.60;93.00;;;;;;5041317;28;19976;-40
2022/10/03 06:55:19;;;;;;;;;;;26.60;93.00;;;;;;5041057;28;19954;-41
2022/10/03 06:57:57;;;;;;;;;;;26.60;93.00;;;;;;5049563;28;20216;-47
2022/10/03 07:00:42;;;;;;;;;;;26.50;93.10;;;;;;5040870;28;24107;-41
2022/10/03 07:03:14;;;;;;;;;;;26.50;93.10;;;;;;5040785;28;19909;-45
2022/10/03 07:05:43;;;;;;;;;;;26.40;93.00;;;;;;5040908;28;19909;-47
2022/10/03 07:08:14;;;;;;;;;;;26.50;93.10;;;;;;5040693;28;24107;-41
2022/10/03 07:10:43;;;;;;;;;;;26.50;93.10;;;;;;5040586;28;19907;-41
2022/10/03 07:13:09;;;;;;;;;;;26.50;93.10;;;;;;5040669;28;19944;-44
2022/10/03 07:16:08;;;;;;;;;;;26.40;93.10;;;;;;5040402;28;19972;-43
2022/10/03 07:18:53;;;;;;;;;;;26.40;93.10;;;;;;5051417;28;19916;-41
2022/10/03 07:21:38;;;;;;;;;;;26.40;93.10;;;;;;5041042;28;20219;-46
2022/10/03 07:24:28;;;;;;;;;;;26.40;93.10;;;;;;5040788;28;19909;-45
2022/10/03 07:27:13;;;;;;;;;;;26.40;93.00;;;;;;5040593;28;19913;-49
2022/10/03 07:29:49;;;;;;;;;;;26.40;93.00;;;;;;5040525;28;19949;-48
2022/10/03 07:32:15;;;;;;;;;;;26.40;93.10;;;;;;5040755;28;19912;-42
2022/10/03 07:35:00;;;;;;;;;;;26.40;93.10;;;;;;5040731;28;19910;-43
2022/10/03 07:40:19;;;;;;;;;;;26.30;93.00;;;;;;5043002;28;19916;-41
2022/10/03 07:42:47;;;;;;;;;;;26.30;93.10;;;;;;5044188;28;24127;-41
2022/10/03 07:45:13;;;;;;;;;;;26.30;93.10;;;;;;5043714;28;19909;-42
2022/10/03 07:47:39;;;;;;;;;;;26.30;93.10;;;;;;5044266;28;19905;-50
2022/10/03 07:50:25;;;;;;;;;;;26.30;93.10;;;;;;5043842;28;19909;-42
2022/10/03 07:53:10;;;;;;;;;;;26.30;93.10;;;;;;5044344;28;19905;-42
2022/10/03 07:55:39;;;;;;;;;;;26.30;93.20;;;;;;5043762;28;25069;-45
2022/10/03 07:58:25;;;;;;;;;;;26.30;93.20;;;;;;5043672;28;24080;-47
2022/10/03 08:01:07;;;;;;;;;;;26.20;93.20;;;;;;5040725;28;19919;-42
2022/10/03 08:04:08;;;;;;;;;;;26.30;93.20;;;;;;5043616;28;19909;-44
2022/10/03 08:06:37;;;;;;;;;;;26.20;93.20;;;;;;5064804;28;24066;-45
2022/10/03 08:09:12;;;;;;;;;;;26.20;93.20;;;;;;5042915;28;19905;-43
2022/10/03 08:11:57;;;;;;;;;;;26.20;93.30;;;;;;5043150;28;19912;-42
2022/10/03 08:14:34;;;;;;;;;;;26.20;93.30;;;;;;5043173;28;19909;-47
2022/10/03 08:17:00;;;;;;;;;;;26.20;93.30;;;;;;5043758;28;24068;-43
2022/10/03 08:19:44;;;;;;;;;;;26.20;93.30;;;;;;5043513;28;20138;-47
2022/10/03 08:22:10;;;;;;;;;;;26.20;93.30;;;;;;5043557;28;19951;-45
2022/10/03 08:24:55;;;;;;;;;;;26.20;93.30;;;;;;5043188;28;20193;-50
2022/10/03 08:27:30;;;;;;;;;;;26.20;93.30;;;;;;5043482;28;20093;-45
2022/10/03 08:29:59;;;;;;;;;;;26.20;93.30;;;;;;5043159;28;20082;-45
2022/10/03 08:32:44;;;;;;;;;;;26.10;93.30;;;;;;5043931;28;24086;-45
2022/10/03 08:35:20;;;;;;;;;;;26.10;93.30;;;;;;5042944;28;19947;-43
2022/10/03 08:37:58;;;;;;;;;;;26.10;93.30;;;;;;5043232;28;19913;-43
2022/10/03 08:40:40;;;;;;;;;;;26.10;93.30;;;;;;5043197;28;19911;-41
2022/10/03 08:43:18;;;;;;;;;;;26.10;93.30;;;;;;5042902;28;24067;-42
2022/10/03 08:46:02;;;;;;;;;;;26.10;93.30;;;;;;5042972;28;19908;-45
2022/10/03 08:48:47;;;;;;;;;;;26.10;93.30;;;;;;5043368;28;20212;-42
2022/10/03 08:51:13;;;;;;;;;;;26.10;93.30;;;;;;5042632;28;20152;-45
2022/10/03 08:54:00;;;;;;;;;;;26.10;93.30;;;;;;5042463;28;19909;-44
2022/10/03 08:56:32;;;;;;;;;;;26.00;93.30;;;;;;5042924;28;20165;-45
2022/10/03 08:59:17;;;;;;;;;;;26.00;93.30;;;;;;5042505;28;19931;-48
2022/10/03 09:01:57;;;;;;;;;;;26.00;93.30;;;;;;5042667;28;19912;-41
2022/10/03 09:04:26;;;;;;;;;;;26.00;93.50;;;;;;5042897;28;24076;-43
2022/10/03 09:07:15;;;;;;;;;;;26.00;93.30;;;;;;5043345;28;19907;-49
2022/10/03 09:10:06;;;;;;;;;;;26.10;93.30;;;;;;5042426;28;19981;-50
2022/10/03 09:12:44;;;;;;;;;;;26.00;93.30;;;;;;5043043;28;24075;-45
2022/10/03 09:15:13;;;;;;;;;;;26.00;93.30;;;;;;5042101;28;19944;-45
2022/10/03 09:17:43;;;;;;;;;;;26.00;93.40;;;;;;5042708;28;19908;-42
2022/10/03 09:20:09;;;;;;;;;;;26.00;93.40;;;;;;5042593;28;19958;-45
2022/10/03 09:22:44;;;;;;;;;;;26.00;93.40;;;;;;5025000;28;19928;-45
2022/10/03 09:25:13;;;;;;;;;;;26.00;93.40;;;;;;5042397;28;24082;-48
2022/10/03 09:27:42;;;;;;;;;;;26.00;93.40;;;;;;5042612;28;19966;-44
2022/10/03 09:30:15;;;;;;;;;;;26.00;93.40;;;;;;5042237;28;19908;-42
2022/10/03 09:32:53;;;;;;;;;;;26.00;93.40;;;;;;5042856;28;19950;-44
2022/10/03 09:35:48;;;;;;;;;;;26.00;93.40;;;;;;5042386;28;19952;-45
2022/10/03 09:38:25;;;;;;;;;;;25.90;93.40;;;;;;5057914;28;20008;-48
2022/10/03 09:40:57;;;;;;;;;;;25.90;93.40;;;;;;5040741;28;19901;-46
2022/10/03 09:43:30;;;;;;;;;;;25.90;93.40;;;;;;5042211;28;19916;-42
2022/10/03 09:46:07;;;;;;;;;;;25.90;93.40;;;;;;5042234;28;24086;-43
2022/10/03 09:48:36;;;;;;;;;;;25.90;93.40;;;;;;5042115;28;24106;-43
2022/10/03 09:51:12;;;;;;;;;;;25.90;93.40;;;;;;5041993;28;19901;-43
2022/10/03 09:54:04;;;;;;;;;;;25.90;93.40;;;;;;5041863;28;20097;-45
2022/10/03 09:56:57;;;;;;;;;;;25.90;93.40;;;;;;5042190;28;19954;-43
2022/10/03 09:59:23;;;;;;;;;;;25.90;93.40;;;;;;5042535;28;19909;-43
2022/10/03 10:02:14;;;;;;;;;;;25.90;93.30;;;;;;5084290;28;19975;-44
2022/10/03 10:04:59;;;;;;;;;;;25.90;93.30;;;;;;5125651;28;19908;-42
2022/10/03 10:07:40;;;;;;;;;;;25.90;93.30;;;;;;5125179;28;24085;-43
2022/10/03 10:10:25;;;;;;;;;;;25.90;93.30;;;;;;5106815;28;19950;-42
2022/10/03 10:12:57;;;;;;;;;;;25.80;93.20;;;;;;5107031;28;19911;-44
2022/10/03 10:15:39;;;;;;;;;;;25.80;93.30;;;;;;5125099;28;19912;-42
2022/10/03 10:18:14;;;;;;;;;;;25.90;93.30;;;;;;5125166;28;19915;-43
2022/10/03 10:20:43;;;;;;;;;;;25.80;93.30;;;;;;5125321;28;19939;-43
2022/10/03 10:23:23;;;;;;;;;;;25.80;93.20;;;;;;5124787;28;25124;-42
2022/10/03 10:26:03;;;;;;;;;;;25.80;93.20;;;;;;5124439;28;19912;-47
2022/10/03 10:28:36;;;;;;;;;;;25.80;93.20;;;;;;5124565;28;20100;-47
2022/10/03 10:31:11;;;;;;;;;;;25.80;93.20;;;;;;5124944;28;19931;-47
2022/10/03 10:33:55;;;;;;;;;;;25.80;93.10;;;;;;5124257;28;24069;-47
2022/10/03 10:36:40;;;;;;;;;;;25.80;93.10;;;;;;5124242;28;19908;-42
2022/10/03 10:39:12;;;;;;;;;;;25.80;93.10;;;;;;5124534;28;19988;-43
2022/10/03 10:41:57;;;;;;;;;;;25.70;93.10;;;;;;5124360;28;19903;-42
2022/10/03 10:44:32;;;;;;;;;;;25.70;93.10;;;;;;5124690;28;19979;-41
2022/10/03 10:47:12;;;;;;;;;;;25.70;93.00;;;;;;5124967;28;20075;-42
2022/10/03 10:49:44;;;;;;;;;;;25.70;93.00;;;;;;5124675;28;24067;-43
2022/10/03 10:52:29;;;;;;;;;;;25.70;93.00;;;;;;5124342;28;19903;-46
2022/10/03 10:55:21;;;;;;;;;;;25.70;93.10;;;;;;5124442;28;19919;-44
2022/10/03 10:58:06;;;;;;;;;;;25.80;93.10;;;;;;5124623;28;19911;-44
2022/10/03 11:00:50;;;;;;;;;;;25.80;93.10;;;;;;5121781;28;20200;-41
2022/10/03 11:03:36;;;;;;;;;;;25.80;93.20;;;;;;5024508;28;24095;-52
2022/10/03 11:06:29;;;;;;;;;;;25.70;93.20;;;;;;5055887;28;19909;-45
2022/10/03 11:09:14;;;;;;;;;;;25.70;93.30;;;;;;5145011;28;20148;-42
2022/10/03 11:11:58;;;;;;;;;;;25.80;93.40;;;;;;5144541;28;19899;-42
2022/10/03 11:14:43;;;;;;;;;;;25.70;93.40;;;;;;5136441;27;19978;-45
2022/10/03 11:17:26;;;;;;;;;;;25.80;93.50;;;;;;5122350;27;19907;-42
2022/10/03 11:20:01;;;;;;;;;;;25.80;93.60;;;;;;5130267;27;20109;-45
2022/10/03 11:22:56;;;;;;;;;;;25.70;93.60;;;;;;5137716;27;19903;-42
2022/10/03 11:25:31;;;;;;;;;;;25.80;93.70;;;;;;5148251;27;20147;-42
2022/10/03 11:28:03;;;;;;;;;;;25.80;93.70;;;;;;5139336;27;19912;-47
2022/10/03 11:30:48;;;;;;;;;;;25.80;93.90;;;;;;5121832;27;19978;-42
2022/10/03 11:33:26;;;;;;;;;;;25.80;94.00;;;;;;5148699;27;19983;-42
2022/10/03 11:36:03;;;;;;;;;;;25.80;94.00;;;;;;5148196;27;24062;-43
2022/10/03 11:38:31;;;;;;;;;;;25.80;94.00;;;;;;5122874;27;19907;-45
2022/10/03 11:40:57;;;;;;;;;;;25.80;93.90;;;;;;5136378;27;19903;-44
2022/10/03 11:43:42;;;;;;;;;;;25.80;94.10;;;;;;5147987;27;24062;-46
2022/10/03 11:46:20;;;;;;;;;;;25.90;94.20;;;;;;5146377;27;19903;-47
2022/10/03 11:48:56;;;;;;;;;;;25.90;94.20;;;;;;5146640;27;19907;-47
2022/10/03 11:51:41;;;;;;;;;;;25.90;94.20;;;;;;5146495;27;24083;-47
2022/10/03 11:54:19;;;;;;;;;;;26.00;94.20;;;;;;5146372;27;19930;-46
2022/10/03 11:57:01;;;;;;;;;;;26.00;94.10;;;;;;5143869;27;19907;-49
2022/10/03 11:59:28;;;;;;;;;;;26.00;94.00;;;;;;5142022;27;19907;-48
2022/10/03 12:02:11;;;;;;;;;;;26.10;94.00;;;;;;5139656;27;19907;-45
2022/10/03 12:04:48;;;;;;;;;;;26.10;93.90;;;;;;5127883;27;19975;-49
2022/10/03 12:10:08;;;;;;;;;;;26.20;93.80;;;;;;5147995;27;24069;-47
2022/10/03 12:12:38;;;;;;;;;;;26.20;93.70;;;;;;5148011;27;20091;-47
2022/10/03 12:15:27;;;;;;;;;;;26.30;93.60;;;;;;5147522;27;19911;-45
2022/10/03 12:18:05;;;;;;;;;;;26.30;93.60;;;;;;5099860;27;19903;-45
2022/10/03 12:20:58;;;;;;;;;;;26.30;93.50;;;;;;5147907;27;19915;-45
2022/10/03 12:23:42;;;;;;;;;;;26.40;93.50;;;;;;5108463;27;20137;-46
2022/10/03 12:26:14;;;;;;;;;;;26.40;93.40;;;;;;5146603;27;20231;-47
2022/10/03 12:28:44;;;;;;;;;;;26.50;93.50;;;;;;5147593;27;19928;-44
2022/10/03 12:31:16;;;;;;;;;;;26.50;93.40;;;;;;5147493;27;24077;-45
2022/10/03 12:33:50;;;;;;;;;;;26.60;93.40;;;;;;5129448;27;20207;-47
2022/10/03 12:36:34;;;;;;;;;;;26.60;93.30;;;;;;5147163;27;24073;-42
2022/10/03 12:39:18;;;;;;;;;;;26.60;93.30;;;;;;5147213;27;19978;-43
2022/10/03 12:42:01;;;;;;;;;;;26.60;93.30;;;;;;5089181;27;19910;-44
2022/10/03 12:44:31;;;;;;;;;;;26.70;93.50;;;;;;5135420;27;19959;-42
2022/10/03 12:47:15;;;;;;;;;;;26.70;93.20;;;;;;5117277;27;20176;-44
2022/10/03 12:50:00;;;;;;;;;;;26.70;93.10;;;;;;5125008;27;19914;-42
2022/10/03 12:53:01;;;;;;;;;;;26.80;93.10;;;;;;5147522;27;19911;-48
2022/10/03 12:55:30;;;;;;;;;;;26.80;93.10;;;;;;5044134;28;19928;-45
2022/10/03 12:57:57;;;;;;;;;;;26.80;93.00;;;;;;5128017;27;19910;-49
2022/10/03 13:00:42;;;;;;;;;;;26.80;92.90;;;;;;5132286;27;20087;-45
2022/10/03 13:03:26;;;;;;;;;;;26.90;93.00;;;;;;5146706;27;19978;-46
2022/10/03 13:05:57;;;;;;;;;;;26.90;92.90;;;;;;5069634;27;25072;-42
2022/10/03 13:08:42;;;;;;;;;;;26.90;92.80;;;;;;5073507;27;19909;-49
2022/10/03 13:11:11;;;;;;;;;;;26.90;92.80;;;;;;5101444;27;24059;-47
2022/10/03 13:13:49;;;;;;;;;;;26.90;92.70;;;;;;5146465;27;20108;-46
2022/10/03 13:16:23;;;;;;;;;;;26.90;92.70;;;;;;5138440;27;20015;-43
2022/10/03 13:18:52;;;;;;;;;;;26.90;92.70;;;;;;5146288;27;19913;-42
2022/10/03 13:21:38;;;;;;;;;;;26.90;92.70;;;;;;5104681;27;20183;-43
2022/10/03 13:24:23;;;;;;;;;;;27.00;92.70;;;;;;5146174;27;19929;-43
2022/10/03 13:26:57;;;;;;;;;;;27.00;92.70;;;;;;5146497;27;19911;-42
2022/10/03 13:29:25;;;;;;;;;;;27.00;92.70;;;;;;5081895;27;19908;-43
2022/10/03 13:32:01;;;;;;;;;;;27.00;92.80;;;;;;5135507;27;20071;-44
2022/10/03 13:34:29;;;;;;;;;;;27.00;92.60;;;;;;5145989;27;19907;-50
2022/10/03 13:37:08;;;;;;;;;;;27.10;92.70;;;;;;5126808;27;19948;-43
2022/10/03 13:39:41;;;;;;;;;;;27.10;92.70;;;;;;5146350;27;19914;-50
2022/10/03 13:42:27;;;;;;;;;;;27.10;92.70;;;;;;5145836;27;24080;-46
2022/10/03 13:44:55;;;;;;;;;;;27.10;92.70;;;;;;5146276;27;20191;-46
2022/10/03 13:47:40;;;;;;;;;;;27.20;92.80;;;;;;5146438;27;20020;-44
2022/10/03 13:50:14;;;;;;;;;;;27.20;92.70;;;;;;5099261;27;19909;-41
2022/10/03 13:52:42;;;;;;;;;;;27.20;92.80;;;;;;5041774;28;19905;-44
2022/10/03 13:55:08;;;;;;;;;;;27.20;92.80;;;;;;5041810;28;20117;-45
2022/10/03 13:57:59;;;;;;;;;;;27.20;92.50;;;;;;5041928;28;19905;-45
2022/10/03 14:00:30;;;;;;;;;;;27.30;92.60;;;;;;5043849;28;19944;-47
2022/10/03 14:03:10;;;;;;;;;;;27.30;92.70;;;;;;5042428;28;19905;-46
2022/10/03 14:05:51;;;;;;;;;;;27.30;92.80;;;;;;5041447;28;20101;-45
2022/10/03 14:08:20;;;;;;;;;;;27.30;92.80;;;;;;5041889;28;19909;-44
2022/10/03 14:10:52;;;;;;;;;;;27.30;92.80;;;;;;5042833;28;19905;-51
2022/10/03 14:13:19;;;;;;;;;;;27.30;92.90;;;;;;5041664;28;20131;-41
2022/10/03 14:16:10;;;;;;;;;;;27.30;93.00;;;;;;5041270;28;19912;-42
2022/10/03 14:18:43;;;;;;;;;;;27.40;92.90;;;;;;5041899;28;19913;-43
2022/10/03 14:21:21;;;;;;;;;;;27.30;93.00;;;;;;5112775;27;20099;-42
2022/10/03 14:23:48;;;;;;;;;;;27.40;92.90;;;;;;5145554;27;19953;-44
2022/10/03 14:26:20;;;;;;;;;;;27.40;92.80;;;;;;5145403;27;19934;-41
2022/10/03 14:28:51;;;;;;;;;;;27.40;92.70;;;;;;5132988;27;20016;-43
2022/10/03 14:31:33;;;;;;;;;;;27.40;92.60;;;;;;5140063;28;19903;-45
2022/10/03 14:34:17;;;;;;;;;;;27.50;92.70;;;;;;5040760;28;19976;-43
2022/10/03 14:36:44;;;;;;;;;;;27.50;92.50;;;;;;5109792;28;19911;-44
2022/10/03 14:39:31;;;;;;;;;;;27.50;92.60;;;;;;5099211;28;20182;-42
2022/10/03 14:42:08;;;;;;;;;;;27.50;92.60;;;;;;5034204;28;19936;-44
2022/10/03 14:44:37;;;;;;;;;;;27.50;92.60;;;;;;5041075;28;24075;-43
2022/10/03 14:47:07;;;;;;;;;;;27.60;92.50;;;;;;5041385;28;19912;-45
2022/10/03 14:49:35;;;;;;;;;;;27.60;92.40;;;;;;5043971;28;20102;-42
2022/10/03 14:52:08;;;;;;;;;;;27.60;92.60;;;;;;5044858;28;20181;-43
2022/10/03 14:54:36;;;;;;;;;;;27.70;92.80;;;;;;5044357;28;19916;-44
2022/10/03 14:57:21;;;;;;;;;;;27.70;92.80;;;;;;5040841;27;19917;-50
2022/10/03 14:59:51;;;;;;;;;;;27.70;92.80;;;;;;5050984;27;19909;-45
2022/10/03 15:02:26;;;;;;;;;;;27.70;92.70;;;;;;5127583;27;19910;-47
2022/10/03 15:04:54;;;;;;;;;;;27.80;92.70;;;;;;5053437;28;20041;-44
2022/10/03 15:07:40;;;;;;;;;;;27.80;92.40;;;;;;5088587;28;20043;-43
2022/10/03 15:10:10;;;;;;;;;;;27.80;92.50;;;;;;5067371;28;20235;-43
2022/10/03 15:12:37;;;;;;;;;;;27.80;92.40;;;;;;5084109;28;19903;-41
2022/10/03 15:15:12;;;;;;;;;;;27.80;92.20;;;;;;5089570;28;19908;-43
2022/10/03 15:17:56;;;;;;;;;;;27.80;92.20;;;;;;5087998;28;20029;-44
2022/10/03 15:20:30;;;;;;;;;;;27.80;92.00;;;;;;5110125;27;19907;-47
2022/10/03 15:22:58;;;;;;;;;;;27.80;91.90;;;;;;5149141;27;19911;-44
2022/10/03 15:25:38;;;;;;;;;;;27.90;92.00;;;;;;5130821;27;19985;-42